^^
Station Historical Data
Daily Summary for July 12, 2018 Units:  Metric    English   Both
« Previous Day
Next Day »
Daily Weekly Monthly Yearly Custom
  High: Low: Average:
Temperature: -17.8 °C 19 °C 23 °C
Dew Point: -17.8 °C 18.5 °C 20.6 °C
Humidity: Humidity% 53% 87%
Wind Speed: 0km/h 0km/h 1km/h
Wind Gust: 0km/h - -
Wind- - SSE
Pressure: 0 hPa 1028.7 hPa -
Precipitation: 26.67 mm    
Historical Graphs
 
 
Tabular Data for July 12, 2018
Time Temperature Dew Point Pressure Wind Wind Speed Wind Gust Humidity Rainfall Rate (Hourly)
-17.8 °C -17.8 °C 0 hPa Calm     Humidity% 0 mm
00:03 20.4 °C 19.9 °C 1030.4 hPa Calm     97% 0 mm
00:08 20.4 °C 19.9 °C 1030.4 hPa Calm     97% 0 mm
00:13 20.3 °C 19.8 °C 1030.4 hPa Calm     97% 0 mm
00:19 20.3 °C 19.8 °C 1030.4 hPa Calm     97% 0 mm
00:24 20.3 °C 19.8 °C 1030.4 hPa Calm     97% 0 mm
00:39 20.2 °C 19.7 °C 1030.4 hPa Calm     97% 0 mm
00:44 20.1 °C 19.6 °C 1030.4 hPa Calm     97% 0 mm
00:49 20.1 °C 19.8 °C 1030.4 hPa Calm     98% 0 mm
00:54 20 °C 19.7 °C 1030.4 hPa Calm     98% 0 mm
00:59 19.9 °C 19.6 °C 1030.4 hPa Calm     98% 0 mm
01:04 19.9 °C 19.6 °C 1030 hPa Calm     98% 0 mm
01:09 19.8 °C 19.5 °C 1030 hPa Calm     98% 0 mm
01:44 20 °C 19.7 °C 1030 hPa Calm     98% 0 mm
01:49 20.1 °C 19.8 °C 1030.4 hPa Calm     98% 0 mm
01:54 20.1 °C 19.8 °C 1030 hPa Calm     98% 0 mm
01:59 20.1 °C 19.8 °C 1030 hPa Calm     98% 0 mm
02:04 20.1 °C 19.8 °C 1030 hPa Calm     98% 0 mm
02:09 20.2 °C 19.9 °C 1030 hPa Calm     98% 0 mm
02:14 20.2 °C 19.9 °C 1030 hPa Calm     98% 0 mm
02:19 20.1 °C 19.8 °C 1030 hPa Calm     98% 0 mm
02:24 20.1 °C 19.8 °C 1030 hPa WNW 1.4 km/h 1.6 km/h 98% 0 mm
02:29 20.1 °C 19.8 °C 1030 hPa SE 1.4 km/h 3.2 km/h 98% 0 mm
02:39 20 °C 19.7 °C 1030 hPa Calm   1.6 km/h 98% 0 mm
02:44 19.9 °C 19.6 °C 1030 hPa Calm     98% 0 mm
02:50 20 °C 19.7 °C 1030 hPa Calm     98% 0 mm
03:10 19.9 °C 19.6 °C 1030 hPa Calm     98% 0 mm
03:15 19.9 °C 19.6 °C 1030 hPa Calm     98% 0 mm
03:30 19.9 °C 19.6 °C 1030 hPa ESE 1.4 km/h 1.6 km/h 98% 0 mm
03:35 19.8 °C 19.5 °C 1030 hPa Calm   3.2 km/h 98% 0 mm
03:40 19.8 °C 19.5 °C 1030 hPa Calm     98% 0 mm
03:50 19.8 °C 19.5 °C 1030 hPa Calm     98% 0 mm
03:55 19.8 °C 19.5 °C 1030 hPa NE 1.4 km/h 3.2 km/h 98% 0 mm
04:00 19.9 °C 19.6 °C 1030 hPa ESE 1.4 km/h 3.2 km/h 98% 0 mm
04:05 19.9 °C 19.6 °C 1030 hPa Calm     98% 0 mm
04:10 19.9 °C 19.6 °C 1030 hPa Calm   1.6 km/h 98% 0 mm
04:15 19.9 °C 19.6 °C 1030 hPa Calm   1.6 km/h 98% 0 mm
04:25 19.8 °C 19.3 °C 1030 hPa Calm   1.6 km/h 97% 0 mm
04:30 19.9 °C 19.6 °C 1030 hPa Calm     98% 0 mm
04:35 19.8 °C 19.3 °C 1030 hPa Calm     97% 0 mm
04:40 19.8 °C 19.3 °C 1030 hPa Calm     97% 0 mm
04:45 19.7 °C 19.2 °C 1030 hPa Calm     97% 0 mm
04:50 19.7 °C 19.2 °C 1030 hPa Calm     97% 0 mm
04:55 19.7 °C 19.2 °C 1030 hPa Calm   1.6 km/h 97% 0 mm
05:00 19.7 °C 19.2 °C 1030 hPa Calm     97% 0 mm
05:05 19.7 °C 19.2 °C 1030 hPa Calm     97% 0 mm
05:10 19.6 °C 19.1 °C 1030 hPa Calm   1.6 km/h 97% 0 mm
05:15 19.6 °C 19.1 °C 1030 hPa Calm     97% 0 mm
05:20 19.6 °C 19.1 °C 1030 hPa Calm   1.6 km/h 97% 0 mm
05:25 19.6 °C 19.1 °C 1030 hPa ESE 1.4 km/h 1.6 km/h 97% 0 mm
05:30 19.6 °C 19.1 °C 1030 hPa SE 1.4 km/h 1.6 km/h 97% 0 mm
05:35 19.5 °C 19 °C 1030 hPa SE 1.4 km/h 1.6 km/h 97% 0 mm
05:40 19.5 °C 19 °C 1030 hPa Calm   4.8 km/h 97% 0 mm
05:45 19.5 °C 19 °C 1030 hPa ENE 1.4 km/h 4.8 km/h 97% 0 mm
05:50 19.4 °C 18.9 °C 1030 hPa SW 1.4 km/h 3.2 km/h 97% 0 mm
05:55 19.4 °C 18.9 °C 1030 hPa Calm     97% 0 mm
06:15 19.4 °C 18.9 °C 1030 hPa Calm     97% 0 mm
06:20 19.4 °C 18.9 °C 1030 hPa Calm   1.6 km/h 97% 0 mm
06:26 19.3 °C 18.8 °C 1030 hPa Calm     97% 0 mm
06:31 19.2 °C 18.7 °C 1030 hPa Calm     97% 0 mm
06:36 19.2 °C 18.7 °C 1030 hPa Calm     97% 0 mm
06:41 19.1 °C 18.6 °C 1030 hPa Calm   1.6 km/h 97% 0 mm
06:46 19.1 °C 18.6 °C 1030 hPa Calm     97% 0 mm
06:51 19.1 °C 18.6 °C 1030 hPa Calm     97% 0 mm
06:56 19.1 °C 18.6 °C 1030 hPa Calm     97% 0 mm
07:01 19 °C 18.5 °C 1030.4 hPa Calm     97% 0 mm
07:06 19.1 °C 18.6 °C 1030.4 hPa Calm     97% 0 mm
07:11 19.2 °C 18.7 °C 1030.4 hPa ENE 1.4 km/h 1.6 km/h 97% 0 mm
07:21 19.2 °C 18.5 °C 1030.4 hPa Calm     96% 0 mm
07:26 19.3 °C 18.6 °C 1030.4 hPa Calm     96% 0 mm
07:31 19.4 °C 18.7 °C 1030.4 hPa Calm   3.2 km/h 96% 0 mm
07:46 19.7 °C 18.7 °C 1030.7 hPa ESE 1.4 km/h 1.6 km/h 94% 0 mm
08:01 20.1 °C 19.1 °C 1030.7 hPa Calm     94% 0 mm
08:11 20.3 °C 19.1 °C 1030.7 hPa Calm   1.6 km/h 93% 0 mm
08:26 21.7 °C 19.8 °C 1031 hPa Calm   1.6 km/h 89% 0 mm
08:32 22.2 °C 19.9 °C 1031 hPa ESE 1.4 km/h 1.6 km/h 87% 0 mm
08:37 22.6 °C 20.1 °C 1031 hPa SE 1.4 km/h 3.2 km/h 86% 0 mm
08:42 22.8 °C 20.1 °C 1031 hPa Calm   1.6 km/h 85% 0 mm
08:47 23.2 °C 20.2 °C 1031 hPa WSW 1.4 km/h 3.2 km/h 83% 0 mm
08:52 23 °C 20.1 °C 1031 hPa ESE 3.2 km/h 3.2 km/h 84% 0 mm
08:57 22.8 °C 20.1 °C 1031 hPa ESE 1.4 km/h 3.2 km/h 85% 0 mm
09:02 22.9 °C 20.2 °C 1031 hPa East 1.4 km/h 3.2 km/h 85% 0 mm
09:07 22.9 °C 20.2 °C 1031 hPa Calm   1.6 km/h 85% 0 mm
09:12 23.3 °C 20.4 °C 1031 hPa Calm   3.2 km/h 84% 0 mm
09:22 24.4 °C 21.1 °C 1031 hPa Calm     82% 0 mm
09:27 24.7 °C 21.2 °C 1031 hPa Calm   1.6 km/h 81% 0 mm
09:32 25 °C 21.3 °C 1030.7 hPa Calm   1.6 km/h 80% 0 mm
09:37 25.1 °C 21 °C 1030.7 hPa Calm   3.2 km/h 78% 0 mm
09:47 25.2 °C 20.9 °C 1030.7 hPa West 1.4 km/h 3.2 km/h 77% 0 mm
09:52 25.1 °C 21 °C 1030.7 hPa Calm   3.2 km/h 78% 0 mm
09:57 25.8 °C 21.7 °C 1030.7 hPa West 1.4 km/h 1.6 km/h 78% 0 mm
10:12 25.8 °C 21.5 °C 1030.7 hPa ENE 3.2 km/h 4.8 km/h 77% 0 mm
10:17 26 °C 21.9 °C 1030.7 hPa SE 1.4 km/h 1.6 km/h 78% 0 mm
10:23 26.1 °C 22 °C 1030.7 hPa ESE 1.4 km/h 3.2 km/h 78% 0 mm
10:28 26.2 °C 21.6 °C 1030.7 hPa SE 1.4 km/h 3.2 km/h 76% 0 mm
10:33 26.4 °C 21.8 °C 1030.7 hPa Calm   3.2 km/h 76% 0 mm
10:38 26.2 °C 21.4 °C 1030.7 hPa SE 1.4 km/h 4.8 km/h 75% 0 mm
10:43 26.3 °C 21.7 °C 1030.7 hPa ENE 1.4 km/h 3.2 km/h 76% 0 mm
11:13 27.6 °C 22.1 °C 1030.7 hPa Calm   1.6 km/h 72% 0 mm
11:18 27.8 °C 22.1 °C 1030.7 hPa Calm   6.4 km/h 71% 0 mm
11:38 28.8 °C 22.5 °C 1030.7 hPa ENE 3.2 km/h 4.8 km/h 69% 0 mm
11:43 29.2 °C 21.9 °C 1030.7 hPa East 1.4 km/h 3.2 km/h 65% 0 mm
12:03 29.6 °C 23.1 °C 1030.7 hPa WNW 1.4 km/h 3.2 km/h 68% 0 mm
12:08 29.8 °C 22.8 °C 1030.7 hPa East 1.4 km/h 3.2 km/h 66% 0 mm
12:13 29.7 °C 22.2 °C 1030.7 hPa SSW 1.4 km/h 3.2 km/h 64% 0 mm
12:18 30.2 °C 22.9 °C 1030.4 hPa SE 1.4 km/h 4.8 km/h 65% 0 mm
12:28 30.6 °C 22.7 °C 1030.4 hPa SE 1.4 km/h 6.4 km/h 63% 0 mm
12:33 30.6 °C 22.7 °C 1030.4 hPa SE 3.2 km/h 4.8 km/h 63% 0 mm
12:43 30.4 °C 23.1 °C 1030 hPa SE 4.7 km/h 8 km/h 65% 0 mm
12:49 30.6 °C 22.2 °C 1030 hPa SE 4.7 km/h 9.7 km/h 61% 0 mm
12:54 30.8 °C 22.4 °C 1030 hPa Calm   3.2 km/h 61% 0 mm
13:14 30.8 °C 22.4 °C 1030 hPa West 4.7 km/h 8 km/h 61% 0 mm
13:24 31.1 °C 21.6 °C 1030 hPa WNW 1.4 km/h 8 km/h 57% 0 mm
13:29 30.7 °C 22.3 °C 1030 hPa Calm   1.6 km/h 61% 0 mm
13:34 30.6 °C 21.4 °C 1029.7 hPa WSW 3.2 km/h 4.8 km/h 58% 0 mm
13:39 29.8 °C 23.5 °C 1029.7 hPa West 1.4 km/h 3.2 km/h 69% 0 mm
13:44 30.1 °C 23.5 °C 1029.7 hPa Calm   6.4 km/h 68% 0 mm
13:54 30.8 °C 23.7 °C 1029.7 hPa West 3.2 km/h 8 km/h 66% 0 mm
13:59 31 °C 22.9 °C 1029.7 hPa WNW 4.7 km/h 9.7 km/h 62% 0 mm
14:04 31.2 °C 22.5 °C 1029.7 hPa WNW 4.7 km/h 6.4 km/h 60% 0 mm
14:09 31.3 °C 21.8 °C 1029.7 hPa SE 3.2 km/h 3.2 km/h 57% 0 mm
14:14 31.4 °C 23 °C 1029.3 hPa West 4.7 km/h 8 km/h 61% 0 mm
14:19 31.3 °C 22.3 °C 1029.7 hPa ESE 1.4 km/h 3.2 km/h 59% 0 mm
14:24 31.7 °C 22.4 °C 1029.3 hPa ENE 3.2 km/h 9.7 km/h 58% 0 mm
14:40 31.7 °C 22.7 °C 1029.3 hPa WNW 4.7 km/h 8 km/h 59% 0 mm
14:45 31.6 °C 22 °C 1029.3 hPa West 7.9 km/h 8 km/h 57% 0 mm
14:50 31.6 °C 22 °C 1029.3 hPa WSW 3.2 km/h 6.4 km/h 57% 0 mm
15:05 32.1 °C 21.9 °C 1029 hPa WNW 4.7 km/h 9.7 km/h 55% 0 mm
15:10 32.3 °C 21.5 °C 1029 hPa ENE 4.7 km/h 6.4 km/h 53% 0 mm
15:15 32.8 °C 22 °C 1029 hPa ESE 1.4 km/h 6.4 km/h 53% 0 mm
15:25 32 °C 23 °C 1029 hPa SE 3.2 km/h 3.2 km/h 59% 0 mm
15:30 32.2 °C 22.6 °C 1028.7 hPa WNW 4.7 km/h 11.3 km/h 57% 0 mm
15:35 32 °C 22.1 °C 1029 hPa NW 1.4 km/h 8 km/h 56% 0 mm
15:45 31.6 °C 22 °C 1028.7 hPa NW 3.2 km/h 3.2 km/h 57% 0 mm
15:50 31 °C 21.5 °C 1028.7 hPa WNW 4.7 km/h 9.7 km/h 57% 0 mm
15:55 30.6 °C 22.2 °C 1028.7 hPa Calm   3.2 km/h 61% 0 mm
16:00 30.6 °C 21.9 °C 1028.7 hPa WSW 1.4 km/h 4.8 km/h 60% 0 mm
16:05 30.2 °C 23.6 °C 1028.7 hPa Calm   3.2 km/h 68% 0 mm
16:25 28.4 °C 22.9 °C 1029 hPa SE 1.4 km/h 3.2 km/h 72% 0 mm
16:30 28.3 °C 22.8 °C 1028.7 hPa Calm   3.2 km/h 72% 0 mm
16:40 28.3 °C 22.5 °C 1028.7 hPa ENE 4.7 km/h 8 km/h 71% 0 mm
17:01 27.2 °C 22.2 °C 1028.7 hPa ESE 1.4 km/h 8 km/h 74% 0 mm
17:11 26.1 °C 22.6 °C 1029 hPa ESE 4.7 km/h 9.7 km/h 81% 0 mm
17:16 25.5 °C 22.2 °C 1029.3 hPa ESE 4.7 km/h 14.5 km/h 82% 0 mm
17:21 25 °C 22.3 °C 1029.7 hPa ENE 1.4 km/h 20.9 km/h 85% 0 mm
17:26 24.2 °C 21.9 °C 1029.7 hPa NE 4.7 km/h 9.7 km/h 87% 3.3 mm
17:31 23.3 °C 20.8 °C 1029.7 hPa WSW 4.7 km/h 6.4 km/h 86% 3.81 mm
17:46 21.8 °C 20.6 °C 1030 hPa ENE 7.9 km/h 8 km/h 93% 10.67 mm
17:51 21.4 °C 20.2 °C 1030 hPa ESE 4.7 km/h 11.3 km/h 93% 14.22 mm
17:56 21.2 °C 20.2 °C 1030.4 hPa Calm   3.2 km/h 94% 16.26 mm
18:01 21.1 °C 20.3 °C 1030.7 hPa Calm   6.4 km/h 95% 17.78 mm
18:06 21.1 °C 20.4 °C 1030.4 hPa Calm   1.6 km/h 96% 19.81 mm
18:16 21 °C 20.5 °C 1030 hPa ESE 4.7 km/h 9.7 km/h 97% 25.4 mm
18:26 21.2 °C 20.7 °C 1030 hPa ENE 3.2 km/h 8 km/h 97% 22.86 mm
18:36 21.4 °C 20.9 °C 1030 hPa Calm   6.4 km/h 97% 21.34 mm
18:51 21.6 °C 21.1 °C 1030 hPa Calm   1.6 km/h 97% 12.19 mm
18:56 21.6 °C 21.1 °C 1030 hPa Calm   1.6 km/h 97% 10.16 mm
19:01 21.7 °C 21.2 °C 1030.4 hPa Calm   1.6 km/h 97% 8.64 mm
19:06 21.7 °C 21.2 °C 1030.4 hPa Calm     97% 6.6 mm
19:16 22 °C 21.7 °C 1030.4 hPa Calm   1.6 km/h 98% 1.02 mm
19:21 22 °C 21.7 °C 1030.4 hPa Calm   1.6 km/h 98% 0.51 mm
19:26 22 °C 21.7 °C 1030.7 hPa Calm   1.6 km/h 98% 0.25 mm
19:31 22.1 °C 21.8 °C 1031 hPa WNW 1.4 km/h 3.2 km/h 98% 0 mm
19:37 22 °C 21.7 °C 1031 hPa Calm     98% 0 mm
19:52 22 °C 21.7 °C 1031 hPa WNW 1.4 km/h 4.8 km/h 98% 0 mm
19:57 21.9 °C 21.6 °C 1031 hPa Calm   1.6 km/h 98% 0 mm
20:07 21.9 °C 21.6 °C 1031 hPa Calm     98% 0 mm
20:12 21.9 °C 21.6 °C 1031 hPa Calm   1.6 km/h 98% 0 mm
20:17 21.9 °C 21.6 °C 1031 hPa Calm     98% 0 mm
20:22 21.9 °C 21.6 °C 1031 hPa Calm     98% 0.25 mm
20:27 21.9 °C 21.6 °C 1031 hPa Calm     98% 0.25 mm
20:32 21.9 °C 21.6 °C 1031.4 hPa Calm     98% 0.25 mm
20:42 21.9 °C 21.7 °C 1031 hPa Calm     99% 0.25 mm
20:47 21.9 °C 21.7 °C 1031 hPa Calm     99% 0.25 mm
20:52 21.9 °C 21.7 °C 1031 hPa Calm     99% 0.25 mm
20:57 21.8 °C 21.6 °C 1031 hPa Calm     99% 0.25 mm
21:02 21.8 °C 21.6 °C 1031 hPa Calm     99% 0.25 mm
21:07 21.8 °C 21.6 °C 1031 hPa SE 1.4 km/h 1.6 km/h 99% 0.25 mm
21:22 21.7 °C 21.5 °C 1030.7 hPa Calm     99% 0 mm
21:27 21.6 °C 21.4 °C 1031 hPa Calm   1.6 km/h 99% 0 mm
21:38 21.5 °C 21.3 °C 1031 hPa Calm     99% 0 mm
21:43 21.4 °C 21.2 °C 1031.4 hPa Calm     99% 0 mm
21:58 21.4 °C 21.2 °C 1031.7 hPa Calm     99% 0 mm
22:03 21.3 °C 21.1 °C 1031.7 hPa Calm     99% 0 mm
22:13 21.2 °C 21 °C 1031.7 hPa Calm     99% 0 mm
22:18 21.1 °C 20.9 °C 1031.7 hPa Calm     99% 0 mm
22:28 21 °C 20.8 °C 1031.7 hPa Calm     99% 0 mm
22:33 21 °C 20.8 °C 1032.1 hPa Calm     99% 0 mm
22:38 21.1 °C 20.9 °C 1031.7 hPa Calm     99% 0 mm
22:43 21.1 °C 20.9 °C 1031.7 hPa Calm   1.6 km/h 99% 0 mm
22:48 21 °C 20.8 °C 1032.1 hPa Calm     99% 0 mm
22:53 21 °C 20.8 °C 1032.1 hPa Calm     99% 0 mm
22:58 20.9 °C 20.7 °C 1032.1 hPa Calm     99% 0 mm
23:03 20.9 °C 20.7 °C 1032.1 hPa Calm     99% 0 mm
23:08 20.9 °C 20.7 °C 1032.1 hPa Calm     99% 0 mm
23:13 20.9 °C 20.7 °C 1032.1 hPa Calm     99% 0 mm
23:18 20.9 °C 20.7 °C 1032.1 hPa Calm     99% 0 mm
23:23 21 °C 20.8 °C 1032.1 hPa Calm     99% 0 mm
23:28 21 °C 20.8 °C 1032.1 hPa Calm     99% 0 mm
23:33 21 °C 20.8 °C 1032.1 hPa Calm     99% 0 mm
23:38 21 °C 20.8 °C 1032.1 hPa Calm     99% 0 mm
23:44 20.9 °C 20.7 °C 1031.7 hPa Calm     99% 0 mm
23:49 20.9 °C 20.7 °C 1032.1 hPa Calm     99% 0 mm
23:54 20.9 °C 20.7 °C 1032.1 hPa SE 1.4 km/h 1.6 km/h 99% 0 mm
23:59 20.9 °C 20.7 °C 1032.1 hPa Calm     99% 0 mm
WheeWeather.com
Compliments of Weather Underground - 2.25 mb